createdAt,value
2022-09-14T00:01:14.403Z,95676.00
2022-09-14T00:05:18.126Z,95670.00
2022-09-14T00:09:23.310Z,95662.00
2022-09-14T00:13:58.041Z,95649.00
2022-09-14T00:18:01.055Z,95623.00
2022-09-14T00:22:06.756Z,95616.00
2022-09-14T00:26:12.551Z,95626.00
2022-09-14T00:30:15.671Z,95625.00
2022-09-14T00:34:19.175Z,95630.00
2022-09-14T00:38:23.642Z,95629.00
2022-09-14T00:42:26.664Z,95630.00
2022-09-14T00:46:31.720Z,95621.00
2022-09-14T00:51:05.621Z,95615.00
2022-09-14T00:55:13.003Z,95616.00
2022-09-14T00:59:20.339Z,95620.00
2022-09-14T01:03:23.726Z,95617.00
2022-09-14T01:08:02.201Z,95618.00
2022-09-14T01:12:18.286Z,95608.00
2022-09-14T01:16:30.516Z,95609.00
2022-09-14T01:20:38.941Z,95608.00
2022-09-14T01:25:15.365Z,95602.00
2022-09-14T01:29:26.290Z,95606.00
2022-09-14T01:33:33.680Z,95608.00
2022-09-14T01:37:42.582Z,95605.00
2022-09-14T01:41:47.641Z,95585.00
2022-09-14T01:46:26.046Z,95587.00
2022-09-14T01:50:35.891Z,95588.00
2022-09-14T01:54:43.661Z,95581.00
2022-09-14T01:58:50.162Z,95584.00
2022-09-14T02:02:58.193Z,95584.00
2022-09-14T02:07:01.362Z,95578.00
2022-09-14T02:11:04.546Z,95574.00
2022-09-14T02:15:41.449Z,95563.00
2022-09-14T02:19:51.201Z,95561.00
2022-09-14T02:23:55.253Z,95547.00
2022-09-14T02:27:58.354Z,95539.00
2022-09-14T02:32:11.326Z,95537.00
2022-09-14T02:36:23.673Z,95531.00
2022-09-14T02:40:33.825Z,95525.00
2022-09-14T02:45:05.425Z,95516.00
2022-09-14T02:49:17.369Z,95529.00
2022-09-14T02:53:28.373Z,95532.00
2022-09-14T02:57:31.487Z,95522.00
2022-09-14T03:01:34.903Z,95504.00
2022-09-14T03:06:08.957Z,95488.00
2022-09-14T03:10:13.365Z,95463.00
2022-09-14T03:14:16.372Z,95462.00
2022-09-14T03:18:19.816Z,95466.00
2022-09-14T03:22:53.501Z,95453.00
2022-09-14T03:26:57.926Z,95464.00
2022-09-14T03:31:02.785Z,95461.00
2022-09-14T03:35:06.850Z,95468.00
2022-09-14T03:39:40.682Z,95495.00
2022-09-14T03:43:45.921Z,95517.00
2022-09-14T03:47:49.419Z,95534.00
2022-09-14T03:51:55.324Z,95606.00
2022-09-14T03:56:27.354Z,95571.00
2022-09-14T04:00:32.356Z,95556.00
2022-09-14T04:04:35.404Z,95546.00
2022-09-14T04:08:41.380Z,95524.00
2022-09-14T04:12:44.418Z,95510.00
2022-09-14T04:16:48.961Z,95505.00
2022-09-14T04:20:56.484Z,95502.00
2022-09-14T04:24:59.594Z,95494.00
2022-09-14T04:29:02.856Z,95473.00
2022-09-14T04:33:07.374Z,95500.00
2022-09-14T04:37:10.430Z,95484.00
2022-09-14T04:41:47.212Z,95475.00
2022-09-14T04:45:50.267Z,95554.00
2022-09-14T04:49:54.758Z,95576.00
2022-09-14T04:53:59.448Z,95529.00
2022-09-14T04:58:02.787Z,95484.00
2022-09-14T05:02:06.081Z,95472.00
2022-09-14T05:06:12.562Z,95459.00
2022-09-14T05:10:15.749Z,95441.00
2022-09-14T05:14:19.200Z,95441.00
2022-09-14T05:18:22.280Z,95432.00
2022-09-14T05:23:00.445Z,95432.00
2022-09-14T05:27:03.529Z,95454.00
2022-09-14T05:31:08.220Z,95478.00
2022-09-14T05:35:11.390Z,95475.00
2022-09-14T05:39:47.032Z,95461.00
2022-09-14T05:43:50.141Z,95453.00
2022-09-14T05:47:53.356Z,95492.00
2022-09-14T05:51:56.417Z,95458.00
2022-09-14T05:56:35.170Z,95421.00
2022-09-14T06:00:39.558Z,95421.00
2022-09-14T06:04:42.781Z,95418.00
2022-09-14T06:09:19.602Z,95414.00
2022-09-14T06:13:24.432Z,95409.00
2022-09-14T06:17:27.792Z,95409.00
2022-09-14T06:21:32.464Z,95390.00
2022-09-14T06:25:35.463Z,95392.00
2022-09-14T06:29:39.931Z,95377.00
2022-09-14T06:33:45.733Z,95380.00
2022-09-14T06:38:19.529Z,95391.00
2022-09-14T06:42:22.515Z,95382.00
2022-09-14T06:46:29.360Z,95388.00
2022-09-14T06:50:32.195Z,95386.00
2022-09-14T06:54:35.382Z,95388.00
2022-09-14T06:58:38.482Z,95404.00
2022-09-14T07:02:42.681Z,95386.00
2022-09-14T07:06:46.910Z,95382.00
2022-09-14T07:10:57.209Z,95375.00
2022-09-14T07:15:00.119Z,95383.00
2022-09-14T07:19:07.062Z,95369.00
2022-09-14T07:23:38.502Z,95377.00
2022-09-14T07:27:41.297Z,95407.00
2022-09-14T07:31:45.952Z,95412.00
2022-09-14T07:36:20.993Z,95383.00
2022-09-14T07:40:24.005Z,95399.00
2022-09-14T07:44:27.249Z,95393.00
2022-09-14T07:48:30.043Z,95372.00
2022-09-14T07:52:38.562Z,95369.00
2022-09-14T07:56:42.739Z,95400.00
2022-09-14T08:00:45.721Z,95391.00
2022-09-14T08:04:48.797Z,95396.00
2022-09-14T08:09:27.853Z,95416.00
2022-09-14T08:13:30.921Z,95419.00
2022-09-14T08:17:33.784Z,95419.00
2022-09-14T08:22:10.366Z,95406.00
2022-09-14T08:26:16.951Z,95411.00
2022-09-14T08:30:19.919Z,95416.00
2022-09-14T08:34:56.928Z,95412.00
2022-09-14T08:39:01.281Z,95408.00
2022-09-14T08:43:05.889Z,95401.00
2022-09-14T08:47:13.629Z,95399.00
2022-09-14T08:51:18.132Z,95388.00
2022-09-14T08:55:54.853Z,95387.00
2022-09-14T09:00:08.220Z,95392.00
2022-09-14T09:04:27.368Z,95385.00
2022-09-14T09:08:35.997Z,95395.00
2022-09-14T09:12:43.140Z,95394.00
2022-09-14T09:16:50.587Z,95392.00
2022-09-14T09:21:22.606Z,95406.00
2022-09-14T09:25:31.634Z,95410.00
2022-09-14T09:29:34.481Z,95411.00
2022-09-14T09:33:38.706Z,95433.00
2022-09-14T09:37:42.191Z,95432.00
2022-09-14T09:41:48.583Z,95434.00
2022-09-14T09:45:55.785Z,95429.00
2022-09-14T09:50:02.150Z,95425.00
2022-09-14T09:54:10.291Z,95422.00
2022-09-14T09:58:28.209Z,95428.00
2022-09-14T10:02:32.711Z,95405.00
2022-09-14T10:07:20.775Z,95418.00
2022-09-14T10:11:31.369Z,95422.00
2022-09-14T10:15:36.573Z,95415.00
2022-09-14T10:20:21.438Z,95416.00
2022-09-14T10:24:25.665Z,95420.00
2022-09-14T10:28:30.155Z,95423.00
2022-09-14T10:32:34.620Z,95415.00
2022-09-14T10:37:13.888Z,95408.00
2022-09-14T10:41:31.082Z,95403.00
2022-09-14T10:45:37.092Z,95390.00
2022-09-14T10:50:21.892Z,95380.00
2022-09-14T10:54:45.306Z,95376.00
2022-09-14T10:59:06.873Z,95384.00
2022-09-14T11:03:28.651Z,95385.00
2022-09-14T11:07:38.957Z,95381.00
2022-09-14T11:11:53.621Z,95373.00
2022-09-14T11:16:03.214Z,95377.00
2022-09-14T11:20:18.439Z,95369.00
2022-09-14T11:24:45.087Z,95365.00
2022-09-14T11:28:53.999Z,95373.00
2022-09-14T11:33:31.192Z,95360.00
2022-09-14T11:37:41.159Z,95354.00
2022-09-14T11:41:49.352Z,95339.00
2022-09-14T11:45:56.200Z,95334.00
2022-09-14T11:50:06.413Z,95330.00
2022-09-14T11:54:26.262Z,95325.00
2022-09-14T11:58:30.930Z,95327.00
2022-09-14T12:03:02.698Z,95338.00
2022-09-14T12:07:06.908Z,95336.00
2022-09-14T12:11:40.370Z,95326.00
2022-09-14T12:15:45.078Z,95341.00
2022-09-14T12:19:50.267Z,95345.00
2022-09-14T12:23:57.863Z,95340.00
2022-09-14T12:28:01.194Z,95335.00
2022-09-14T12:32:07.152Z,95335.00
2022-09-14T12:36:11.115Z,95330.00
2022-09-14T12:40:46.245Z,95336.00
2022-09-14T12:44:49.102Z,95336.00
2022-09-14T12:49:02.766Z,95333.00
2022-09-14T12:53:34.922Z,95329.00
2022-09-14T12:57:47.203Z,95335.00
2022-09-14T13:01:58.465Z,95352.00
2022-09-14T13:06:34.758Z,95338.00
2022-09-14T13:10:40.773Z,95347.00
2022-09-14T13:14:50.124Z,95358.00
2022-09-14T13:24:31.301Z,95363.00
2022-09-14T13:28:34.461Z,95356.00
2022-09-14T13:33:16.793Z,95345.00
2022-09-14T13:37:21.434Z,95334.00
2022-09-14T13:41:24.923Z,95326.00
2022-09-14T13:45:28.194Z,95323.00
2022-09-14T13:50:07.719Z,95324.00
2022-09-14T13:54:29.477Z,95334.00
2022-09-14T13:58:35.580Z,95321.00
2022-09-14T14:02:40.961Z,95310.00
2022-09-14T14:07:00.543Z,95312.00
2022-09-14T14:11:05.806Z,95303.00
2022-09-14T14:15:37.664Z,95297.00
2022-09-14T14:19:41.419Z,95281.00
2022-09-14T14:24:02.826Z,95264.00
2022-09-14T14:28:17.483Z,95259.00
2022-09-14T14:32:45.043Z,95272.00
2022-09-14T14:36:50.022Z,95271.00
2022-09-14T14:40:57.399Z,95269.00
2022-09-14T14:45:01.717Z,95262.00
2022-09-14T14:49:04.742Z,95263.00
2022-09-14T14:53:07.950Z,95247.00
2022-09-14T14:57:45.783Z,95245.00
2022-09-14T15:01:49.102Z,95248.00
2022-09-14T15:05:52.118Z,95246.00
2022-09-14T15:10:29.191Z,95243.00
2022-09-14T15:14:33.657Z,95232.00
2022-09-14T15:18:36.444Z,95232.00
2022-09-14T15:23:14.127Z,95212.00
2022-09-14T15:27:16.950Z,95212.00
2022-09-14T15:31:21.333Z,95204.00
2022-09-14T15:35:58.372Z,95184.00
2022-09-14T15:40:01.332Z,95197.00
2022-09-14T15:44:04.818Z,95193.00
2022-09-14T15:48:08.982Z,95192.00
2022-09-14T15:52:43.191Z,95193.00
2022-09-14T15:56:49.546Z,95272.00
2022-09-14T16:00:52.498Z,95308.00
2022-09-14T16:05:27.872Z,95318.00
2022-09-14T16:09:30.682Z,95289.00
2022-09-14T16:13:34.200Z,95293.00
2022-09-14T16:17:37.118Z,95317.00
2022-09-14T16:21:42.627Z,95322.00
2022-09-14T16:25:45.503Z,95353.00
2022-09-14T16:29:48.547Z,95325.00
2022-09-14T16:34:26.578Z,95294.00
2022-09-14T16:38:32.238Z,95286.00
2022-09-14T16:42:35.076Z,95287.00
2022-09-14T16:46:37.862Z,95283.00
2022-09-14T16:51:15.774Z,95276.00
2022-09-14T16:55:20.177Z,95274.00
2022-09-14T16:59:23.425Z,95292.00
2022-09-14T17:03:31.672Z,95275.00
2022-09-14T17:08:02.709Z,95257.00
2022-09-14T17:12:07.558Z,95247.00
2022-09-14T17:16:12.640Z,95246.00
2022-09-14T17:20:34.282Z,95220.00
2022-09-14T17:24:37.309Z,95211.00
2022-09-14T17:28:44.507Z,95217.00
2022-09-14T17:32:47.648Z,95249.00
2022-09-14T17:36:50.686Z,95256.00
2022-09-14T17:40:54.201Z,95268.00
2022-09-14T17:44:58.584Z,95268.00
2022-09-14T17:49:32.064Z,95275.00
2022-09-14T17:53:38.530Z,95276.00
2022-09-14T17:57:41.880Z,95288.00
2022-09-14T18:02:15.343Z,95286.00
2022-09-14T18:06:20.272Z,95291.00
2022-09-14T18:10:23.368Z,95288.00
2022-09-14T18:14:26.984Z,95294.00
2022-09-14T18:18:30.087Z,95323.00
2022-09-14T18:22:34.562Z,95336.00
2022-09-14T18:26:38.546Z,95342.00
2022-09-14T18:31:16.751Z,95338.00
2022-09-14T18:35:19.794Z,95342.00
2022-09-14T18:39:24.194Z,95341.00
2022-09-14T18:43:27.212Z,95336.00
2022-09-14T18:48:03.977Z,95349.00
2022-09-14T18:52:07.482Z,95354.00
2022-09-14T18:56:13.544Z,95350.00
2022-09-14T19:00:47.534Z,95356.00
2022-09-14T19:04:51.291Z,95365.00
2022-09-14T19:08:54.430Z,95353.00
2022-09-14T19:13:32.902Z,95343.00
2022-09-14T19:17:35.942Z,95339.00
2022-09-14T19:21:39.125Z,95336.00
2022-09-14T19:25:44.436Z,95331.00
2022-09-14T19:29:48.793Z,95336.00
2022-09-14T19:33:52.438Z,95340.00
2022-09-14T19:38:30.191Z,95326.00
2022-09-14T19:42:33.247Z,95331.00
2022-09-14T19:46:39.673Z,95334.00
2022-09-14T19:50:43.136Z,95333.00
2022-09-14T19:55:20.193Z,95334.00
2022-09-14T19:59:23.387Z,95329.00
2022-09-14T20:03:27.805Z,95329.00
2022-09-14T20:07:30.939Z,95327.00
2022-09-14T20:11:35.595Z,95332.00
2022-09-14T20:15:38.751Z,95313.00
2022-09-14T20:19:43.210Z,95299.00
2022-09-14T20:24:19.299Z,95299.00
2022-09-14T20:28:27.207Z,95301.00
2022-09-14T20:32:31.197Z,95298.00
2022-09-14T20:37:06.730Z,95301.00
2022-09-14T20:41:11.291Z,95293.00
2022-09-14T20:45:15.335Z,95302.00
2022-09-14T20:49:20.859Z,95294.00
2022-09-14T20:53:56.380Z,95299.00
2022-09-14T20:58:00.786Z,95288.00
2022-09-14T21:02:05.662Z,95297.00
2022-09-14T21:06:10.722Z,95292.00
2022-09-14T21:10:44.254Z,95302.00
2022-09-14T21:14:48.784Z,95291.00
2022-09-14T21:18:55.572Z,95306.00
2022-09-14T21:23:29.611Z,95306.00
2022-09-14T21:27:32.655Z,95308.00
2022-09-14T21:31:39.154Z,95298.00
2022-09-14T21:36:11.962Z,95293.00
2022-09-14T21:40:15.388Z,95308.00
2022-09-14T21:44:18.521Z,95301.00
2022-09-14T21:48:22.933Z,95315.00
2022-09-14T21:52:25.989Z,95310.00
2022-09-14T21:57:03.024Z,95305.00
2022-09-14T22:01:06.398Z,95308.00
2022-09-14T22:05:12.059Z,95301.00
2022-09-14T22:09:16.900Z,95301.00
2022-09-14T22:13:50.563Z,95302.00
2022-09-14T22:17:53.658Z,95316.00
2022-09-14T22:21:58.500Z,95321.00
2022-09-14T22:26:05.617Z,95311.00
2022-09-14T22:30:44.793Z,95319.00
2022-09-14T22:34:49.881Z,95325.00
2022-09-14T22:38:56.698Z,95311.00
2022-09-14T22:43:00.139Z,95320.00
2022-09-14T22:47:03.173Z,95308.00
2022-09-14T22:51:08.089Z,95312.00
2022-09-14T22:55:44.832Z,95300.00
2022-09-14T22:59:47.837Z,95304.00
2022-09-14T23:03:55.908Z,95294.00
2022-09-14T23:07:59.206Z,95289.00
2022-09-14T23:12:38.013Z,95294.00
2022-09-14T23:16:41.241Z,95291.00
2022-09-14T23:20:46.090Z,95296.00
2022-09-14T23:24:49.217Z,95292.00
2022-09-14T23:28:55.466Z,95297.00
2022-09-14T23:32:59.117Z,95298.00
2022-09-14T23:37:02.287Z,95299.00
2022-09-14T23:41:05.441Z,95295.00
2022-09-14T23:45:11.141Z,95307.00
2022-09-14T23:49:14.958Z,95309.00
2022-09-14T23:53:18.117Z,95326.00
2022-09-14T23:57:21.274Z,95335.00
